createdAt,value
2022-10-08T14:14:00.660Z,8.90
2022-10-08T14:18:04.333Z,9.63
2022-10-08T14:22:07.908Z,8.67
2022-10-08T14:26:12.624Z,9.07
2022-10-08T14:30:17.880Z,8.87
2022-10-08T14:34:21.247Z,9.67
2022-10-08T14:38:25.183Z,10.57
2022-10-08T14:42:28.492Z,9.13
2022-10-08T14:46:33.417Z,8.50
2022-10-08T14:50:36.686Z,9.37
2022-10-08T14:54:40.299Z,9.53
2022-10-08T14:58:50.897Z,8.07
2022-10-08T15:02:55.865Z,9.00
2022-10-08T15:06:59.220Z,9.47
2022-10-08T15:11:04.474Z,8.67
2022-10-08T15:15:08.910Z,9.33
2022-10-08T15:19:13.870Z,8.57
2022-10-08T15:23:18.719Z,8.70
2022-10-08T15:27:22.252Z,9.10
2022-10-08T15:31:26.664Z,9.30
2022-10-08T15:35:35.690Z,9.03
2022-10-08T15:39:40.407Z,11.30
2022-10-08T15:43:44.756Z,9.23
2022-10-08T15:47:50.158Z,10.23
2022-10-08T15:51:57.132Z,9.07
2022-10-08T15:56:01.344Z,8.87
2022-10-08T16:00:06.449Z,9.37
2022-10-08T16:04:15.247Z,9.03
2022-10-08T16:08:20.180Z,13.17
2022-10-08T16:12:24.706Z,9.70
2022-10-08T16:16:28.786Z,9.17
2022-10-08T16:20:32.592Z,9.67
2022-10-08T16:24:37.416Z,11.27
2022-10-08T16:28:42.162Z,10.67
2022-10-08T16:32:45.866Z,9.73
2022-10-08T16:36:49.932Z,11.00
2022-10-08T16:40:54.676Z,12.07
2022-10-08T16:44:57.996Z,11.57
2022-10-08T16:49:04.529Z,14.63
2022-10-08T16:53:08.761Z,12.53
2022-10-08T16:57:13.639Z,16.33
2022-10-08T17:01:17.013Z,32.47
2022-10-08T17:05:20.382Z,26.23
2022-10-08T17:09:26.286Z,20.37
2022-10-08T17:13:31.097Z,16.30
2022-10-08T17:17:34.447Z,16.30
2022-10-08T17:21:38.570Z,18.50
2022-10-08T17:25:42.221Z,18.20
2022-10-08T17:29:46.983Z,16.80
2022-10-08T17:33:51.522Z,19.20
2022-10-08T17:37:55.811Z,20.70
2022-10-08T17:42:01.729Z,18.00
2022-10-08T17:46:11.353Z,20.67
2022-10-08T17:50:15.017Z,16.47
2022-10-08T17:54:22.611Z,16.90
2022-10-08T17:58:26.811Z,18.97
2022-10-08T18:02:32.855Z,18.23
2022-10-08T18:06:41.498Z,20.13
2022-10-08T18:10:45.223Z,26.13
2022-10-08T18:14:50.283Z,19.40
2022-10-08T18:18:55.702Z,18.77
2022-10-08T18:23:04.945Z,20.20
2022-10-08T18:27:13.527Z,19.70
2022-10-08T18:31:20.907Z,17.40
2022-10-08T18:35:31.143Z,19.00
2022-10-08T18:39:37.369Z,21.00
2022-10-08T18:43:43.632Z,21.30
2022-10-08T18:47:49.680Z,17.17
2022-10-08T18:51:59.729Z,20.33
2022-10-08T18:56:08.174Z,17.80
2022-10-08T19:00:14.697Z,19.37
2022-10-08T19:04:23.354Z,19.90
2022-10-08T19:08:29.018Z,19.47
2022-10-08T19:12:33.012Z,19.17
2022-10-08T19:16:37.768Z,20.10
2022-10-08T19:20:41.445Z,19.47
2022-10-08T19:24:47.148Z,20.63
2022-10-08T19:28:53.022Z,29.00
2022-10-08T19:32:59.765Z,23.47
2022-10-08T19:37:04.765Z,20.53
2022-10-08T19:41:12.466Z,19.93
2022-10-08T19:45:17.170Z,20.50
2022-10-08T19:49:23.959Z,22.77
2022-10-08T19:53:28.047Z,21.13
2022-10-08T19:57:32.929Z,22.70
2022-10-08T20:01:39.294Z,25.20
2022-10-08T20:05:42.713Z,22.33
2022-10-08T20:09:46.617Z,24.10
2022-10-08T20:13:53.868Z,22.23
2022-10-08T20:17:57.245Z,21.87
2022-10-08T20:22:00.655Z,20.60
2022-10-08T20:26:11.876Z,21.27
2022-10-08T20:30:17.330Z,28.83
2022-10-08T20:34:23.795Z,21.63
2022-10-08T20:38:29.958Z,22.03
2022-10-08T20:42:33.442Z,20.90
2022-10-08T20:46:39.281Z,20.37
2022-10-08T20:50:42.674Z,20.07
2022-10-08T20:54:46.018Z,21.93
2022-10-08T20:58:49.600Z,21.83
2022-10-08T21:02:54.383Z,21.43
2022-10-08T21:06:57.764Z,18.17
2022-10-08T21:11:04.126Z,17.73
2022-10-08T21:15:08.902Z,16.90
2022-10-08T21:19:15.475Z,18.73
2022-10-08T21:23:18.822Z,19.23
2022-10-08T21:27:22.382Z,18.50
2022-10-08T21:31:27.023Z,20.00
2022-10-08T21:35:32.176Z,19.83
2022-10-08T21:39:36.589Z,22.93
2022-10-08T21:43:40.578Z,20.53
2022-10-08T21:47:44.389Z,20.10
2022-10-08T21:51:49.865Z,20.63
2022-10-08T21:55:57.234Z,20.70
2022-10-08T22:00:00.602Z,20.80
2022-10-08T22:04:05.879Z,20.00
2022-10-08T22:08:10.629Z,19.87
2022-10-08T22:12:14.008Z,19.80
2022-10-08T22:16:19.408Z,20.97
2022-10-08T22:20:22.818Z,17.93
2022-10-08T22:24:27.690Z,18.37
2022-10-08T22:28:31.802Z,20.57
2022-10-08T22:32:35.256Z,19.60
2022-10-08T22:36:41.713Z,19.00
2022-10-08T22:40:46.460Z,19.13
2022-10-08T22:44:49.797Z,17.70
2022-10-08T22:48:53.432Z,18.33
2022-10-08T22:52:56.681Z,18.60
2022-10-08T22:57:01.443Z,18.23
2022-10-08T23:01:06.537Z,19.37
2022-10-08T23:05:10.164Z,18.70
2022-10-08T23:09:13.925Z,19.70
2022-10-08T23:13:18.794Z,24.20
2022-10-08T23:17:22.109Z,20.17
2022-10-08T23:21:26.262Z,16.30
2022-10-08T23:25:29.641Z,18.13
2022-10-08T23:29:34.423Z,21.60
2022-10-08T23:33:39.098Z,17.07
2022-10-08T23:37:42.641Z,18.60
2022-10-08T23:41:45.913Z,15.63
2022-10-08T23:45:50.675Z,13.67
2022-10-08T23:49:54.062Z,12.90
2022-10-08T23:53:57.463Z,13.50
2022-10-08T23:58:00.826Z,14.10
